createdAt,value
2023-02-09T00:02:46.264Z,23.07
2023-02-09T00:07:48.079Z,22.60
2023-02-09T00:13:08.397Z,24.50
2023-02-09T00:18:10.179Z,20.40
2023-02-09T00:23:12.014Z,20.67
2023-02-09T00:28:14.144Z,21.30
2023-02-09T00:33:16.077Z,24.03
2023-02-09T00:38:18.063Z,25.47
2023-02-09T00:43:19.914Z,22.83
2023-02-09T00:48:22.398Z,19.10
2023-02-09T00:53:24.725Z,21.40
2023-02-09T00:58:26.591Z,17.83
2023-02-09T01:03:28.445Z,23.47
2023-02-09T01:08:30.274Z,19.37
2023-02-09T01:13:32.154Z,21.87
2023-02-09T01:18:34.957Z,22.67
2023-02-09T01:23:37.009Z,23.40
2023-02-09T01:28:39.577Z,21.87
2023-02-09T01:33:41.428Z,22.00
2023-02-09T01:38:43.327Z,23.87
2023-02-09T01:43:54.380Z,19.27
2023-02-09T01:49:18.337Z,17.40
2023-02-09T01:54:34.927Z,22.50
2023-02-09T01:59:40.288Z,21.60
2023-02-09T02:04:44.241Z,19.63
2023-02-09T02:09:47.892Z,23.17
2023-02-09T02:14:50.699Z,21.97
2023-02-09T02:19:58.708Z,23.53
2023-02-09T02:25:31.366Z,23.70
2023-02-09T02:30:50.806Z,20.90
2023-02-09T02:35:58.133Z,21.40
2023-02-09T02:41:15.199Z,25.53
2023-02-09T02:46:22.918Z,22.23
2023-02-09T02:51:30.144Z,29.93
2023-02-09T02:56:37.079Z,28.03
2023-02-09T03:02:02.236Z,24.70
2023-02-09T03:07:08.733Z,26.63
2023-02-09T03:12:51.633Z,20.83
2023-02-09T03:18:10.475Z,18.60
2023-02-09T03:23:23.858Z,21.67
2023-02-09T03:28:36.554Z,21.23
2023-02-09T03:33:39.522Z,24.07
2023-02-09T03:38:41.330Z,25.23
2023-02-09T03:44:01.619Z,25.73
2023-02-09T03:49:06.602Z,20.90
2023-02-09T03:54:08.569Z,24.27
2023-02-09T03:59:10.560Z,25.63
2023-02-09T04:04:12.395Z,24.97
2023-02-09T04:09:15.139Z,19.60
2023-02-09T04:14:17.531Z,19.90
2023-02-09T04:19:19.375Z,22.67
2023-02-09T04:24:21.909Z,17.90
2023-02-09T04:29:23.800Z,19.50
2023-02-09T04:34:25.815Z,23.17
2023-02-09T04:39:27.666Z,24.73
2023-02-09T04:44:29.558Z,23.27
2023-02-09T04:49:31.474Z,20.87
2023-02-09T04:54:33.298Z,21.00
2023-02-09T04:59:35.182Z,22.37
2023-02-09T05:04:37.271Z,22.10
2023-02-09T05:09:39.106Z,23.77
2023-02-09T05:14:40.981Z,21.37
2023-02-09T05:19:42.816Z,21.77
2023-02-09T05:24:44.687Z,23.10
2023-02-09T05:29:46.603Z,24.10
2023-02-09T05:34:48.447Z,22.37
2023-02-09T05:39:51.255Z,29.80
2023-02-09T05:44:53.411Z,24.03
2023-02-09T05:49:55.257Z,21.70
2023-02-09T05:54:57.182Z,24.87
2023-02-09T05:59:59.048Z,22.83
2023-02-09T06:05:00.893Z,33.67
2023-02-09T06:10:02.730Z,31.80
2023-02-09T06:15:05.007Z,26.60
2023-02-09T06:20:07.225Z,31.77
2023-02-09T06:25:09.044Z,33.30
2023-02-09T06:30:11.634Z,32.03
2023-02-09T06:35:13.531Z,31.03
2023-02-09T06:40:15.458Z,43.77
2023-02-09T06:45:17.819Z,44.43
2023-02-09T06:50:20.402Z,41.30
2023-02-09T06:55:22.350Z,35.27
2023-02-09T07:00:24.285Z,35.87
2023-02-09T07:05:26.238Z,44.73
2023-02-09T07:10:28.056Z,43.27
2023-02-09T07:15:29.867Z,41.30
2023-02-09T07:20:31.681Z,47.37
2023-02-09T07:25:34.291Z,37.90
2023-02-09T07:30:41.055Z,45.70
2023-02-09T07:35:43.139Z,36.47
2023-02-09T07:40:46.778Z,37.77
2023-02-09T07:45:48.775Z,49.70
2023-02-09T07:50:51.164Z,46.70
2023-02-09T07:55:53.508Z,43.50
2023-02-09T08:00:55.402Z,43.63
2023-02-09T08:06:01.932Z,47.37
2023-02-09T08:11:05.523Z,40.40
2023-02-09T08:16:12.871Z,38.97
2023-02-09T08:21:16.763Z,34.30
2023-02-09T08:26:18.869Z,37.67
2023-02-09T08:31:22.102Z,49.47
2023-02-09T08:36:24.091Z,50.17
2023-02-09T08:41:25.955Z,42.00
2023-02-09T08:46:28.190Z,42.00
2023-02-09T08:51:30.086Z,37.93
2023-02-09T08:56:31.888Z,34.33
2023-02-09T09:01:33.822Z,30.27
2023-02-09T09:06:36.414Z,28.53
2023-02-09T09:11:38.227Z,33.17
2023-02-09T09:16:40.129Z,30.17
2023-02-09T09:21:42.189Z,25.93
2023-02-09T09:26:44.153Z,24.63
2023-02-09T09:31:46.086Z,27.23
2023-02-09T09:36:48.073Z,26.43
2023-02-09T09:41:51.712Z,23.90
2023-02-09T09:46:54.865Z,24.83
2023-02-09T09:52:16.961Z,21.30
2023-02-09T09:57:31.264Z,20.42
2023-02-09T10:02:34.698Z,20.67
2023-02-09T10:07:38.902Z,21.83
2023-02-09T10:12:48.829Z,24.13
2023-02-09T10:17:50.675Z,22.08
2023-02-09T10:22:52.533Z,20.45
2023-02-09T10:27:54.321Z,20.23
2023-02-09T10:33:00.418Z,19.65
2023-02-09T10:38:03.253Z,20.38
2023-02-09T10:43:18.041Z,20.17
2023-02-09T10:48:20.992Z,20.05
2023-02-09T10:53:38.385Z,18.55
2023-02-09T10:58:40.848Z,18.52
2023-02-09T11:04:05.508Z,19.98
2023-02-09T11:09:17.958Z,19.45
2023-02-09T11:14:21.091Z,19.38
2023-02-09T11:19:32.029Z,18.50
2023-02-09T11:25:10.950Z,20.02
2023-02-09T11:30:15.864Z,21.08
2023-02-09T11:35:19.153Z,19.83
2023-02-09T11:40:41.548Z,18.65
2023-02-09T11:45:51.437Z,18.48
2023-02-09T11:50:56.153Z,20.52
2023-02-09T11:56:00.780Z,17.88
2023-02-09T12:01:20.498Z,17.05
2023-02-09T12:06:24.881Z,16.98
2023-02-09T12:11:45.501Z,18.65
2023-02-09T12:16:54.692Z,17.48
2023-02-09T12:21:56.618Z,17.77
2023-02-09T12:26:58.513Z,17.35
2023-02-09T12:32:06.696Z,16.42
2023-02-09T12:37:14.491Z,19.40
2023-02-09T12:42:16.332Z,16.85
2023-02-09T12:47:42.873Z,16.23
2023-02-09T12:53:22.492Z,16.30
2023-02-09T12:58:34.957Z,18.90
2023-02-09T13:04:03.804Z,17.13
2023-02-09T13:09:13.554Z,17.02
2023-02-09T13:14:18.243Z,16.77
2023-02-09T13:19:51.060Z,19.08
2023-02-09T13:25:00.585Z,16.38
2023-02-09T13:30:02.556Z,17.27
2023-02-09T13:35:04.566Z,18.10
2023-02-09T13:40:29.834Z,17.75
2023-02-09T13:45:31.921Z,17.42
2023-02-09T13:50:34.062Z,17.98
2023-02-09T13:55:39.914Z,18.23
2023-02-09T14:00:47.515Z,18.65
2023-02-09T14:05:59.183Z,18.25
2023-02-09T14:11:33.388Z,18.23
2023-02-09T14:16:53.183Z,18.15
2023-02-09T14:21:55.542Z,17.75
2023-02-09T14:27:05.314Z,18.65
2023-02-09T14:32:33.354Z,17.35
2023-02-09T14:37:37.495Z,18.05
2023-02-09T14:42:59.280Z,17.38
2023-02-09T14:48:01.086Z,19.58
2023-02-09T14:53:08.135Z,20.23
2023-02-09T14:58:20.380Z,18.48
2023-02-09T15:03:23.095Z,19.33
2023-02-09T15:08:28.366Z,19.67
2023-02-09T15:13:32.583Z,21.70
2023-02-09T15:18:36.168Z,19.48
2023-02-09T15:23:37.979Z,18.98
2023-02-09T15:28:39.837Z,19.75
2023-02-09T15:33:41.694Z,20.60
2023-02-09T15:38:43.541Z,21.80
2023-02-09T15:44:03.871Z,19.98
2023-02-09T15:49:05.853Z,21.30
2023-02-09T15:54:19.982Z,20.75
2023-02-09T15:59:23.486Z,21.95
2023-02-09T16:04:25.351Z,24.07
2023-02-09T16:09:30.923Z,25.35
2023-02-09T16:14:32.835Z,20.77
2023-02-09T16:19:34.885Z,47.67
2023-02-09T16:24:46.748Z,33.23
2023-02-09T16:29:48.625Z,32.67
2023-02-09T16:34:51.394Z,29.50
2023-02-09T16:39:54.336Z,29.37
2023-02-09T16:44:56.898Z,28.87
2023-02-09T16:50:05.460Z,30.03
2023-02-09T16:55:20.857Z,34.43
2023-02-09T17:00:28.576Z,33.73
2023-02-09T17:05:37.188Z,67.27
2023-02-09T17:10:39.125Z,35.43
2023-02-09T17:15:49.028Z,63.07
2023-02-09T17:20:55.209Z,36.23
2023-02-09T17:25:57.316Z,27.37
2023-02-09T17:31:01.656Z,25.00
2023-02-09T17:36:25.695Z,25.47
2023-02-09T17:41:44.818Z,28.87
2023-02-09T17:46:46.851Z,37.03
2023-02-09T17:51:49.480Z,35.43
2023-02-09T17:56:51.378Z,33.63
2023-02-09T18:01:55.273Z,33.15
2023-02-09T18:06:58.318Z,39.37
2023-02-09T18:12:07.875Z,35.43
2023-02-09T18:17:09.813Z,38.23
2023-02-09T18:22:17.280Z,41.93
2023-02-09T18:27:21.061Z,25.60
2023-02-09T18:32:24.014Z,32.50
2023-02-09T18:37:25.947Z,27.17
2023-02-09T18:42:27.759Z,25.63
2023-02-09T18:47:29.862Z,29.87
2023-02-09T18:52:32.165Z,35.57
2023-02-09T18:57:34.038Z,32.23
2023-02-09T19:02:36.906Z,27.87
2023-02-09T19:07:39.091Z,24.47
2023-02-09T19:12:41.622Z,27.47
2023-02-09T19:17:44.637Z,29.67
2023-02-09T19:22:51.389Z,28.93
2023-02-09T19:27:53.918Z,51.97
2023-02-09T19:33:00.235Z,29.80
2023-02-09T19:38:02.090Z,30.47
2023-02-09T19:43:05.176Z,36.10
2023-02-09T19:48:08.583Z,27.87
2023-02-09T19:53:10.700Z,25.83
2023-02-09T19:58:12.540Z,34.33
2023-02-09T20:03:15.803Z,28.20
2023-02-09T20:08:19.594Z,27.63
2023-02-09T20:18:23.240Z,27.57
2023-02-09T20:23:25.085Z,32.73
2023-02-09T20:28:27.006Z,32.33
2023-02-09T20:33:28.877Z,35.00
2023-02-09T20:38:30.742Z,30.87
2023-02-09T20:43:51.119Z,37.53
2023-02-09T20:48:53.011Z,24.47
2023-02-09T20:53:54.900Z,25.67
2023-02-09T20:58:57.124Z,31.03
2023-02-09T21:04:00.391Z,28.53
2023-02-09T21:09:02.383Z,25.83
2023-02-09T21:14:04.445Z,28.70
2023-02-09T21:19:06.227Z,27.80
2023-02-09T21:24:08.163Z,24.77
2023-02-09T21:29:11.029Z,24.40
2023-02-09T21:34:14.705Z,26.63
2023-02-09T21:39:16.649Z,26.60
2023-02-09T21:44:18.508Z,27.97
2023-02-09T21:49:20.735Z,31.08
2023-02-09T21:54:22.586Z,28.10
2023-02-09T21:59:24.456Z,28.73
2023-02-09T22:04:27.258Z,29.93
2023-02-09T22:09:29.334Z,25.70
2023-02-09T22:14:31.466Z,28.73
2023-02-09T22:19:33.325Z,29.13
2023-02-09T22:24:35.283Z,29.67
2023-02-09T22:29:37.441Z,30.30
2023-02-09T22:34:39.342Z,25.97
2023-02-09T22:39:41.179Z,23.37
2023-02-09T22:44:43.041Z,26.20
2023-02-09T22:49:46.788Z,27.17
2023-02-09T22:54:48.612Z,28.47
2023-02-09T22:59:50.483Z,28.43
2023-02-09T23:04:52.340Z,26.77
2023-02-09T23:09:54.242Z,30.87
2023-02-09T23:14:56.052Z,28.50
2023-02-09T23:19:57.856Z,26.37
2023-02-09T23:25:01.570Z,29.30
2023-02-09T23:30:04.044Z,27.63
2023-02-09T23:35:06.355Z,29.10
2023-02-09T23:40:08.655Z,27.13
2023-02-09T23:45:10.486Z,31.83
2023-02-09T23:50:12.346Z,31.53
2023-02-09T23:55:14.193Z,32.20
